sensor_id;sensor_type;location;lat;lon;timestamp;temperature;humidity
18894;DHT22;9579;49.488;8.226;2023-05-07T00:00:33;17.90;99.90
18894;DHT22;9579;49.488;8.226;2023-05-07T00:03:20;17.90;99.90
18894;DHT22;9579;49.488;8.226;2023-05-07T00:06:09;17.90;99.90
18894;DHT22;9579;49.488;8.226;2023-05-07T00:08:58;17.80;99.90
18894;DHT22;9579;49.488;8.226;2023-05-07T00:11:46;17.80;99.90
18894;DHT22;9579;49.488;8.226;2023-05-07T00:14:33;17.80;99.90
18894;DHT22;9579;49.488;8.226;2023-05-07T00:17:20;17.70;99.90
18894;DHT22;9579;49.488;8.226;2023-05-07T00:20:08;17.70;99.90
18894;DHT22;9579;49.488;8.226;2023-05-07T00:22:56;17.60;99.90
18894;DHT22;9579;49.488;8.226;2023-05-07T00:25:43;17.60;99.90
18894;DHT22;9579;49.488;8.226;2023-05-07T00:28:30;17.70;99.90
18894;DHT22;9579;49.488;8.226;2023-05-07T00:31:17;17.60;99.90
18894;DHT22;9579;49.488;8.226;2023-05-07T00:34:05;17.60;99.90
18894;DHT22;9579;49.488;8.226;2023-05-07T00:36:52;17.60;99.90
18894;DHT22;9579;49.488;8.226;2023-05-07T00:39:40;17.50;99.90
18894;DHT22;9579;49.488;8.226;2023-05-07T00:42:27;17.50;99.90
18894;DHT22;9579;49.488;8.226;2023-05-07T00:45:15;17.50;99.90
18894;DHT22;9579;49.488;8.226;2023-05-07T00:48:02;17.40;99.90
18894;DHT22;9579;49.488;8.226;2023-05-07T00:50:49;17.40;99.90
18894;DHT22;9579;49.488;8.226;2023-05-07T00:53:37;17.40;99.90
18894;DHT22;9579;49.488;8.226;2023-05-07T00:56:26;17.40;99.90
18894;DHT22;9579;49.488;8.226;2023-05-07T00:59:13;17.40;99.90
18894;DHT22;9579;49.488;8.226;2023-05-07T01:02:00;17.40;99.90
18894;DHT22;9579;49.488;8.226;2023-05-07T01:04:47;17.30;99.90
18894;DHT22;9579;49.488;8.226;2023-05-07T01:07:35;17.40;99.90
18894;DHT22;9579;49.488;8.226;2023-05-07T01:10:23;17.20;99.90
18894;DHT22;9579;49.488;8.226;2023-05-07T01:13:13;17.20;99.90
18894;DHT22;9579;49.488;8.226;2023-05-07T01:16:00;17.20;99.90
18894;DHT22;9579;49.488;8.226;2023-05-07T01:18:48;17.20;99.90
18894;DHT22;9579;49.488;8.226;2023-05-07T01:21:37;17.20;99.90
18894;DHT22;9579;49.488;8.226;2023-05-07T01:24:25;17.20;99.90
18894;DHT22;9579;49.488;8.226;2023-05-07T01:27:12;17.10;99.90
18894;DHT22;9579;49.488;8.226;2023-05-07T01:29:59;17.10;99.90
18894;DHT22;9579;49.488;8.226;2023-05-07T01:32:59;17.10;99.90
18894;DHT22;9579;49.488;8.226;2023-05-07T01:35:51;17.00;99.90
18894;DHT22;9579;49.488;8.226;2023-05-07T01:38:39;17.00;99.90
18894;DHT22;9579;49.488;8.226;2023-05-07T01:41:29;17.00;99.90
18894;DHT22;9579;49.488;8.226;2023-05-07T01:44:16;17.00;99.90
18894;DHT22;9579;49.488;8.226;2023-05-07T01:47:05;17.00;99.90
18894;DHT22;9579;49.488;8.226;2023-05-07T01:49:53;17.00;99.90
18894;DHT22;9579;49.488;8.226;2023-05-07T01:52:40;17.00;99.90
18894;DHT22;9579;49.488;8.226;2023-05-07T01:55:27;17.00;99.90
18894;DHT22;9579;49.488;8.226;2023-05-07T01:58:15;17.00;99.90
18894;DHT22;9579;49.488;8.226;2023-05-07T02:01:03;17.00;99.90
18894;DHT22;9579;49.488;8.226;2023-05-07T02:03:49;17.00;99.90
18894;DHT22;9579;49.488;8.226;2023-05-07T02:06:36;16.90;99.90
18894;DHT22;9579;49.488;8.226;2023-05-07T02:09:23;16.80;99.90
18894;DHT22;9579;49.488;8.226;2023-05-07T02:12:10;16.70;99.90
18894;DHT22;9579;49.488;8.226;2023-05-07T02:14:59;16.70;99.90
18894;DHT22;9579;49.488;8.226;2023-05-07T02:17:59;16.80;99.90
18894;DHT22;9579;49.488;8.226;2023-05-07T02:20:46;17.00;99.90
18894;DHT22;9579;49.488;8.226;2023-05-07T02:23:33;16.40;99.90
18894;DHT22;9579;49.488;8.226;2023-05-07T02:26:20;16.30;99.90
18894;DHT22;9579;49.488;8.226;2023-05-07T02:29:08;16.30;99.90
18894;DHT22;9579;49.488;8.226;2023-05-07T02:31:56;16.20;99.90
18894;DHT22;9579;49.488;8.226;2023-05-07T02:34:43;16.10;99.90
18894;DHT22;9579;49.488;8.226;2023-05-07T02:37:30;16.10;99.90
18894;DHT22;9579;49.488;8.226;2023-05-07T02:40:17;16.00;99.90
18894;DHT22;9579;49.488;8.226;2023-05-07T02:43:04;16.10;99.90
18894;DHT22;9579;49.488;8.226;2023-05-07T02:46:00;16.10;99.90
18894;DHT22;9579;49.488;8.226;2023-05-07T02:48:48;16.20;99.90
18894;DHT22;9579;49.488;8.226;2023-05-07T02:51:35;16.20;99.90
18894;DHT22;9579;49.488;8.226;2023-05-07T02:54:22;16.10;99.90
18894;DHT22;9579;49.488;8.226;2023-05-07T02:57:09;16.00;99.90
18894;DHT22;9579;49.488;8.226;2023-05-07T02:59:58;16.00;99.90
18894;DHT22;9579;49.488;8.226;2023-05-07T03:02:45;16.00;99.90
18894;DHT22;9579;49.488;8.226;2023-05-07T03:05:33;15.90;99.90
18894;DHT22;9579;49.488;8.226;2023-05-07T03:08:20;15.90;99.90
18894;DHT22;9579;49.488;8.226;2023-05-07T03:11:07;15.90;99.90
18894;DHT22;9579;49.488;8.226;2023-05-07T03:13:54;15.80;99.90
18894;DHT22;9579;49.488;8.226;2023-05-07T03:16:41;15.70;99.90
18894;DHT22;9579;49.488;8.226;2023-05-07T03:19:41;15.70;99.90
18894;DHT22;9579;49.488;8.226;2023-05-07T03:22:29;15.60;99.90
18894;DHT22;9579;49.488;8.226;2023-05-07T03:25:16;15.60;99.90
18894;DHT22;9579;49.488;8.226;2023-05-07T03:28:03;15.90;99.90
18894;DHT22;9579;49.488;8.226;2023-05-07T03:37:29;15.40;99.90
18894;DHT22;9579;49.488;8.226;2023-05-07T03:40:16;15.30;99.90
18894;DHT22;9579;49.488;8.226;2023-05-07T03:43:03;15.20;99.90
18894;DHT22;9579;49.488;8.226;2023-05-07T03:45:50;15.40;99.90
18894;DHT22;9579;49.488;8.226;2023-05-07T03:48:37;15.40;99.90
18894;DHT22;9579;49.488;8.226;2023-05-07T03:51:25;15.30;99.90
18894;DHT22;9579;49.488;8.226;2023-05-07T05:18:08;15.60;99.90
18894;DHT22;9579;49.488;8.226;2023-05-07T05:20:55;16.00;99.90
18894;DHT22;9579;49.488;8.226;2023-05-07T05:34:37;16.00;99.90
18894;DHT22;9579;49.488;8.226;2023-05-07T05:37:25;16.30;99.90
18894;DHT22;9579;49.488;8.226;2023-05-07T05:40:12;16.70;99.90
18894;DHT22;9579;49.488;8.226;2023-05-07T05:42:59;17.20;99.90
18894;DHT22;9579;49.488;8.226;2023-05-07T05:45:46;16.30;99.90
18894;DHT22;9579;49.488;8.226;2023-05-07T05:48:33;16.40;99.90
18894;DHT22;9579;49.488;8.226;2023-05-07T05:51:22;16.50;99.90
18894;DHT22;9579;49.488;8.226;2023-05-07T05:54:09;16.60;99.90
18894;DHT22;9579;49.488;8.226;2023-05-07T05:56:56;16.70;99.90
18894;DHT22;9579;49.488;8.226;2023-05-07T05:59:43;16.80;99.90
18894;DHT22;9579;49.488;8.226;2023-05-07T06:02:30;17.00;99.90
18894;DHT22;9579;49.488;8.226;2023-05-07T06:05:18;17.20;99.90
18894;DHT22;9579;49.488;8.226;2023-05-07T06:08:06;17.30;99.90
18894;DHT22;9579;49.488;8.226;2023-05-07T06:10:53;17.50;99.90
18894;DHT22;9579;49.488;8.226;2023-05-07T06:13:40;17.60;99.90
18894;DHT22;9579;49.488;8.226;2023-05-07T06:16:27;17.80;99.90
18894;DHT22;9579;49.488;8.226;2023-05-07T06:19:14;17.90;99.90
18894;DHT22;9579;49.488;8.226;2023-05-07T06:22:03;18.10;99.90
18894;DHT22;9579;49.488;8.226;2023-05-07T06:24:52;18.20;99.90
18894;DHT22;9579;49.488;8.226;2023-05-07T06:27:39;18.40;99.90
18894;DHT22;9579;49.488;8.226;2023-05-07T06:30:26;18.50;99.90
18894;DHT22;9579;49.488;8.226;2023-05-07T06:33:13;18.60;99.90
18894;DHT22;9579;49.488;8.226;2023-05-07T06:36:00;18.70;99.90
18894;DHT22;9579;49.488;8.226;2023-05-07T06:38:47;18.80;99.90
18894;DHT22;9579;49.488;8.226;2023-05-07T06:41:35;18.90;99.90
18894;DHT22;9579;49.488;8.226;2023-05-07T06:44:22;19.00;99.90
18894;DHT22;9579;49.488;8.226;2023-05-07T06:47:09;19.20;99.90
18894;DHT22;9579;49.488;8.226;2023-05-07T06:49:56;19.10;99.90
18894;DHT22;9579;49.488;8.226;2023-05-07T06:52:43;19.20;99.90
18894;DHT22;9579;49.488;8.226;2023-05-07T06:55:30;19.20;99.90
18894;DHT22;9579;49.488;8.226;2023-05-07T06:58:19;19.20;99.90
18894;DHT22;9579;49.488;8.226;2023-05-07T07:01:06;19.30;99.90
18894;DHT22;9579;49.488;8.226;2023-05-07T07:03:53;19.30;99.90
18894;DHT22;9579;49.488;8.226;2023-05-07T07:06:40;19.40;99.90
18894;DHT22;9579;49.488;8.226;2023-05-07T07:09:27;19.50;99.90
18894;DHT22;9579;49.488;8.226;2023-05-07T07:12:14;19.50;99.90
18894;DHT22;9579;49.488;8.226;2023-05-07T07:15:03;19.60;99.90
18894;DHT22;9579;49.488;8.226;2023-05-07T07:17:53;19.70;99.90
18894;DHT22;9579;49.488;8.226;2023-05-07T07:20:40;19.70;99.90
18894;DHT22;9579;49.488;8.226;2023-05-07T07:23:27;19.80;99.90
18894;DHT22;9579;49.488;8.226;2023-05-07T07:26:14;19.90;99.90
18894;DHT22;9579;49.488;8.226;2023-05-07T07:29:01;20.00;99.90
18894;DHT22;9579;49.488;8.226;2023-05-07T07:31:49;20.10;99.90
18894;DHT22;9579;49.488;8.226;2023-05-07T07:34:36;20.20;99.90
18894;DHT22;9579;49.488;8.226;2023-05-07T07:37:23;20.10;99.90
18894;DHT22;9579;49.488;8.226;2023-05-07T07:40:12;20.20;99.90
18894;DHT22;9579;49.488;8.226;2023-05-07T07:42:59;20.30;99.90
18894;DHT22;9579;49.488;8.226;2023-05-07T07:45:47;20.40;99.90
18894;DHT22;9579;49.488;8.226;2023-05-07T07:48:35;20.50;99.90
18894;DHT22;9579;49.488;8.226;2023-05-07T07:51:22;20.60;99.90
18894;DHT22;9579;49.488;8.226;2023-05-07T07:54:09;20.70;99.80
18894;DHT22;9579;49.488;8.226;2023-05-07T07:56:56;20.70;99.80
18894;DHT22;9579;49.488;8.226;2023-05-07T07:59:43;20.90;99.60
18894;DHT22;9579;49.488;8.226;2023-05-07T08:02:30;20.90;99.20
18894;DHT22;9579;49.488;8.226;2023-05-07T08:05:18;20.80;98.90
18894;DHT22;9579;49.488;8.226;2023-05-07T08:08:05;20.90;99.00
18894;DHT22;9579;49.488;8.226;2023-05-07T08:10:52;21.00;99.20
18894;DHT22;9579;49.488;8.226;2023-05-07T08:13:39;21.00;99.40
18894;DHT22;9579;49.488;8.226;2023-05-07T08:16:26;21.10;99.10
18894;DHT22;9579;49.488;8.226;2023-05-07T08:19:14;21.30;99.00
18894;DHT22;9579;49.488;8.226;2023-05-07T08:22:02;21.30;98.30
18894;DHT22;9579;49.488;8.226;2023-05-07T08:24:49;21.40;98.30
18894;DHT22;9579;49.488;8.226;2023-05-07T08:27:37;21.60;98.50
18894;DHT22;9579;49.488;8.226;2023-05-07T08:30:24;21.60;98.40
18894;DHT22;9579;49.488;8.226;2023-05-07T08:33:11;21.70;98.70
18894;DHT22;9579;49.488;8.226;2023-05-07T08:35:58;21.70;98.50
18894;DHT22;9579;49.488;8.226;2023-05-07T08:38:46;21.80;98.20
18894;DHT22;9579;49.488;8.226;2023-05-07T08:41:34;21.80;98.00
18894;DHT22;9579;49.488;8.226;2023-05-07T08:44:22;21.90;98.00
18894;DHT22;9579;49.488;8.226;2023-05-07T08:47:10;22.00;98.20
18894;DHT22;9579;49.488;8.226;2023-05-07T08:49:56;22.10;97.70
18894;DHT22;9579;49.488;8.226;2023-05-07T08:52:44;22.20;97.40
18894;DHT22;9579;49.488;8.226;2023-05-07T08:55:33;22.30;97.50
18894;DHT22;9579;49.488;8.226;2023-05-07T08:58:20;22.40;97.40
18894;DHT22;9579;49.488;8.226;2023-05-07T09:01:09;22.40;96.90
18894;DHT22;9579;49.488;8.226;2023-05-07T09:03:57;22.60;96.50
18894;DHT22;9579;49.488;8.226;2023-05-07T09:06:44;22.90;95.90
18894;DHT22;9579;49.488;8.226;2023-05-07T09:09:32;23.20;95.60
18894;DHT22;9579;49.488;8.226;2023-05-07T09:12:21;23.40;95.20
18894;DHT22;9579;49.488;8.226;2023-05-07T09:15:09;23.40;94.40
18894;DHT22;9579;49.488;8.226;2023-05-07T09:17:59;23.40;94.90
18894;DHT22;9579;49.488;8.226;2023-05-07T09:20:47;23.40;94.90
18894;DHT22;9579;49.488;8.226;2023-05-07T09:23:34;23.60;94.80
18894;DHT22;9579;49.488;8.226;2023-05-07T09:26:21;24.00;94.50
18894;DHT22;9579;49.488;8.226;2023-05-07T09:29:10;24.50;93.50
18894;DHT22;9579;49.488;8.226;2023-05-07T09:31:57;25.10;92.30
18894;DHT22;9579;49.488;8.226;2023-05-07T09:34:44;25.40;91.80
18894;DHT22;9579;49.488;8.226;2023-05-07T09:37:33;25.50;91.10
18894;DHT22;9579;49.488;8.226;2023-05-07T09:40:21;25.40;91.60
18894;DHT22;9579;49.488;8.226;2023-05-07T09:43:09;25.00;90.30
18894;DHT22;9579;49.488;8.226;2023-05-07T09:45:59;24.70;90.90
18894;DHT22;9579;49.488;8.226;2023-05-07T09:48:48;24.80;91.90
18894;DHT22;9579;49.488;8.226;2023-05-07T09:51:41;25.00;92.00
18894;DHT22;9579;49.488;8.226;2023-05-07T09:54:29;25.60;91.10
18894;DHT22;9579;49.488;8.226;2023-05-07T09:57:17;26.00;90.20
18894;DHT22;9579;49.488;8.226;2023-05-07T10:00:07;26.40;89.90
18894;DHT22;9579;49.488;8.226;2023-05-07T10:02:57;26.20;86.60
18894;DHT22;9579;49.488;8.226;2023-05-07T10:05:45;26.00;87.20
18894;DHT22;9579;49.488;8.226;2023-05-07T10:08:33;25.90;87.10
18894;DHT22;9579;49.488;8.226;2023-05-07T10:11:21;26.10;87.50
18894;DHT22;9579;49.488;8.226;2023-05-07T10:14:10;26.40;89.50
18894;DHT22;9579;49.488;8.226;2023-05-07T10:16:57;26.00;86.60
18894;DHT22;9579;49.488;8.226;2023-05-07T10:19:46;26.10;87.10
18894;DHT22;9579;49.488;8.226;2023-05-07T10:22:38;26.40;90.30
18894;DHT22;9579;49.488;8.226;2023-05-07T10:25:28;26.80;88.50
18894;DHT22;9579;49.488;8.226;2023-05-07T10:28:16;26.90;88.70
18894;DHT22;9579;49.488;8.226;2023-05-07T10:31:35;27.10;87.20
18894;DHT22;9579;49.488;8.226;2023-05-07T10:34:29;27.30;87.20
18894;DHT22;9579;49.488;8.226;2023-05-07T10:37:20;27.30;89.60
18894;DHT22;9579;49.488;8.226;2023-05-07T10:40:09;27.30;86.50
18894;DHT22;9579;49.488;8.226;2023-05-07T10:42:57;27.30;87.20
18894;DHT22;9579;49.488;8.226;2023-05-07T10:46:09;27.30;85.20
18894;DHT22;9579;49.488;8.226;2023-05-07T10:49:07;27.30;84.90
18894;DHT22;9579;49.488;8.226;2023-05-07T10:52:12;27.60;85.50
18894;DHT22;9579;49.488;8.226;2023-05-07T10:55:21;27.80;85.80
18894;DHT22;9579;49.488;8.226;2023-05-07T10:58:23;28.10;84.20
18894;DHT22;9579;49.488;8.226;2023-05-07T11:01:11;28.00;84.10
18894;DHT22;9579;49.488;8.226;2023-05-07T11:04:14;28.10;86.40
18894;DHT22;9579;49.488;8.226;2023-05-07T11:07:23;28.30;84.10
18894;DHT22;9579;49.488;8.226;2023-05-07T11:10:10;28.30;81.00
18894;DHT22;9579;49.488;8.226;2023-05-07T11:12:58;28.20;83.30
18894;DHT22;9579;49.488;8.226;2023-05-07T11:15:47;28.20;84.70
18894;DHT22;9579;49.488;8.226;2023-05-07T11:18:46;28.20;82.10
18894;DHT22;9579;49.488;8.226;2023-05-07T11:21:35;28.20;82.10
18894;DHT22;9579;49.488;8.226;2023-05-07T11:24:23;28.30;84.10
18894;DHT22;9579;49.488;8.226;2023-05-07T11:27:11;28.40;82.90
18894;DHT22;9579;49.488;8.226;2023-05-07T11:29:59;28.60;82.80
18894;DHT22;9579;49.488;8.226;2023-05-07T11:32:48;28.60;80.90
18894;DHT22;9579;49.488;8.226;2023-05-07T11:35:35;28.50;80.10
18894;DHT22;9579;49.488;8.226;2023-05-07T11:38:22;28.50;82.50
18894;DHT22;9579;49.488;8.226;2023-05-07T11:41:09;28.80;81.70
18894;DHT22;9579;49.488;8.226;2023-05-07T11:43:58;29.00;80.60
18894;DHT22;9579;49.488;8.226;2023-05-07T11:46:46;29.10;80.00
18894;DHT22;9579;49.488;8.226;2023-05-07T11:49:34;29.40;79.40
18894;DHT22;9579;49.488;8.226;2023-05-07T11:52:22;29.70;79.80
18894;DHT22;9579;49.488;8.226;2023-05-07T11:55:09;29.70;78.80
18894;DHT22;9579;49.488;8.226;2023-05-07T11:57:56;30.00;78.20
18894;DHT22;9579;49.488;8.226;2023-05-07T12:00:48;30.10;80.20
18894;DHT22;9579;49.488;8.226;2023-05-07T12:03:37;30.30;78.00
18894;DHT22;9579;49.488;8.226;2023-05-07T12:06:28;30.50;76.20
18894;DHT22;9579;49.488;8.226;2023-05-07T12:09:15;30.40;75.80
18894;DHT22;9579;49.488;8.226;2023-05-07T12:12:03;30.30;76.00
18894;DHT22;9579;49.488;8.226;2023-05-07T12:14:50;30.20;76.10
18894;DHT22;9579;49.488;8.226;2023-05-07T12:17:37;29.90;76.00
18894;DHT22;9579;49.488;8.226;2023-05-07T12:20:26;29.80;75.90
18894;DHT22;9579;49.488;8.226;2023-05-07T12:23:14;29.90;75.30
18894;DHT22;9579;49.488;8.226;2023-05-07T12:26:01;29.70;76.50
18894;DHT22;9579;49.488;8.226;2023-05-07T12:28:49;29.50;76.50
18894;DHT22;9579;49.488;8.226;2023-05-07T12:31:36;29.20;77.70
18894;DHT22;9579;49.488;8.226;2023-05-07T12:34:23;28.80;76.90
18894;DHT22;9579;49.488;8.226;2023-05-07T12:37:11;28.60;79.90
18894;DHT22;9579;49.488;8.226;2023-05-07T12:40:06;28.40;80.40
18894;DHT22;9579;49.488;8.226;2023-05-07T12:42:53;28.20;79.00
18894;DHT22;9579;49.488;8.226;2023-05-07T12:45:41;27.90;82.30
18894;DHT22;9579;49.488;8.226;2023-05-07T12:48:29;27.90;82.30
18894;DHT22;9579;49.488;8.226;2023-05-07T12:51:16;27.70;84.40
18894;DHT22;9579;49.488;8.226;2023-05-07T12:54:05;27.60;85.10
18894;DHT22;9579;49.488;8.226;2023-05-07T12:57:00;27.60;84.80
18894;DHT22;9579;49.488;8.226;2023-05-07T12:59:47;27.50;85.70
18894;DHT22;9579;49.488;8.226;2023-05-07T13:02:34;27.30;86.10
18894;DHT22;9579;49.488;8.226;2023-05-07T13:05:24;27.10;85.50
18894;DHT22;9579;49.488;8.226;2023-05-07T13:08:11;27.00;86.20
18894;DHT22;9579;49.488;8.226;2023-05-07T13:11:01;26.80;87.70
18894;DHT22;9579;49.488;8.226;2023-05-07T13:13:49;26.70;86.90
18894;DHT22;9579;49.488;8.226;2023-05-07T13:16:36;26.60;88.20
18894;DHT22;9579;49.488;8.226;2023-05-07T13:19:23;26.40;88.50
18894;DHT22;9579;49.488;8.226;2023-05-07T13:22:10;26.30;88.10
18894;DHT22;9579;49.488;8.226;2023-05-07T13:24:57;26.10;89.50
18894;DHT22;9579;49.488;8.226;2023-05-07T13:27:45;25.90;90.00
18894;DHT22;9579;49.488;8.226;2023-05-07T13:30:32;25.80;90.70
18894;DHT22;9579;49.488;8.226;2023-05-07T13:33:19;25.60;90.30
18894;DHT22;9579;49.488;8.226;2023-05-07T13:36:06;25.40;90.70
18894;DHT22;9579;49.488;8.226;2023-05-07T13:38:53;25.30;91.60
18894;DHT22;9579;49.488;8.226;2023-05-07T13:41:40;25.10;92.70
18894;DHT22;9579;49.488;8.226;2023-05-07T13:44:28;25.00;93.20
18894;DHT22;9579;49.488;8.226;2023-05-07T13:47:15;24.80;93.50
18894;DHT22;9579;49.488;8.226;2023-05-07T13:50:03;24.60;94.20
18894;DHT22;9579;49.488;8.226;2023-05-07T13:52:50;24.50;94.00
18894;DHT22;9579;49.488;8.226;2023-05-07T13:55:37;24.40;93.80
18894;DHT22;9579;49.488;8.226;2023-05-07T13:58:24;24.20;94.00
18894;DHT22;9579;49.488;8.226;2023-05-07T14:01:12;24.10;94.00
18894;DHT22;9579;49.488;8.226;2023-05-07T14:03:59;24.00;94.90
18894;DHT22;9579;49.488;8.226;2023-05-07T14:06:46;23.90;95.20
18894;DHT22;9579;49.488;8.226;2023-05-07T14:09:33;23.80;96.20
18894;DHT22;9579;49.488;8.226;2023-05-07T14:12:20;23.70;96.50
18894;DHT22;9579;49.488;8.226;2023-05-07T14:15:08;23.70;97.90
18894;DHT22;9579;49.488;8.226;2023-05-07T14:17:56;23.50;98.50
18894;DHT22;9579;49.488;8.226;2023-05-07T14:20:44;23.40;99.40
18894;DHT22;9579;49.488;8.226;2023-05-07T14:23:33;23.20;99.60
18894;DHT22;9579;49.488;8.226;2023-05-07T14:26:20;23.20;99.90
18894;DHT22;9579;49.488;8.226;2023-05-07T14:29:08;23.10;99.90
18894;DHT22;9579;49.488;8.226;2023-05-07T14:31:55;23.10;99.90
18894;DHT22;9579;49.488;8.226;2023-05-07T14:34:44;23.00;99.90
18894;DHT22;9579;49.488;8.226;2023-05-07T14:37:31;22.90;99.90
18894;DHT22;9579;49.488;8.226;2023-05-07T14:40:18;22.80;99.90
18894;DHT22;9579;49.488;8.226;2023-05-07T14:43:05;22.70;99.90
18894;DHT22;9579;49.488;8.226;2023-05-07T14:45:52;22.70;99.90
18894;DHT22;9579;49.488;8.226;2023-05-07T14:48:39;22.50;99.90
18894;DHT22;9579;49.488;8.226;2023-05-07T14:51:27;22.50;99.90
18894;DHT22;9579;49.488;8.226;2023-05-07T14:54:14;22.40;99.90
18894;DHT22;9579;49.488;8.226;2023-05-07T14:57:01;22.50;99.90
18894;DHT22;9579;49.488;8.226;2023-05-07T14:59:49;22.30;99.90
18894;DHT22;9579;49.488;8.226;2023-05-07T15:02:36;22.10;99.90
18894;DHT22;9579;49.488;8.226;2023-05-07T15:05:23;22.00;99.90
18894;DHT22;9579;49.488;8.226;2023-05-07T15:08:11;21.90;99.90
18894;DHT22;9579;49.488;8.226;2023-05-07T15:10:58;21.60;99.90
18894;DHT22;9579;49.488;8.226;2023-05-07T15:13:45;21.50;99.90
18894;DHT22;9579;49.488;8.226;2023-05-07T15:16:32;21.30;99.90
18894;DHT22;9579;49.488;8.226;2023-05-07T15:19:19;21.20;99.90
18894;DHT22;9579;49.488;8.226;2023-05-07T15:22:08;21.00;99.90
18894;DHT22;9579;49.488;8.226;2023-05-07T15:24:56;20.70;99.90
18894;DHT22;9579;49.488;8.226;2023-05-07T15:27:44;20.50;99.90
18894;DHT22;9579;49.488;8.226;2023-05-07T15:30:31;20.40;99.90
18894;DHT22;9579;49.488;8.226;2023-05-07T15:33:18;20.30;99.90
18894;DHT22;9579;49.488;8.226;2023-05-07T15:36:05;20.10;99.90
18894;DHT22;9579;49.488;8.226;2023-05-07T15:38:52;19.80;99.90
18894;DHT22;9579;49.488;8.226;2023-05-07T15:41:41;19.70;99.90
18894;DHT22;9579;49.488;8.226;2023-05-07T15:44:28;19.40;99.90
18894;DHT22;9579;49.488;8.226;2023-05-07T15:47:17;19.30;99.90
18894;DHT22;9579;49.488;8.226;2023-05-07T15:50:05;19.20;99.90
18894;DHT22;9579;49.488;8.226;2023-05-07T15:52:52;18.90;99.90
18894;DHT22;9579;49.488;8.226;2023-05-07T15:55:41;18.90;99.90
18894;DHT22;9579;49.488;8.226;2023-05-07T15:58:30;18.80;99.90
18894;DHT22;9579;49.488;8.226;2023-05-07T16:01:17;18.80;99.90
18894;DHT22;9579;49.488;8.226;2023-05-07T16:04:05;18.90;99.90
18894;DHT22;9579;49.488;8.226;2023-05-07T16:06:52;18.90;99.90
18894;DHT22;9579;49.488;8.226;2023-05-07T16:09:39;19.00;99.90
18894;DHT22;9579;49.488;8.226;2023-05-07T16:12:26;19.00;99.90
18894;DHT22;9579;49.488;8.226;2023-05-07T16:15:14;18.90;99.90
18894;DHT22;9579;49.488;8.226;2023-05-07T16:18:01;18.90;99.90
18894;DHT22;9579;49.488;8.226;2023-05-07T16:20:48;18.90;99.90
18894;DHT22;9579;49.488;8.226;2023-05-07T16:23:36;18.70;99.90
18894;DHT22;9579;49.488;8.226;2023-05-07T16:26:23;18.80;99.90
18894;DHT22;9579;49.488;8.226;2023-05-07T16:29:10;18.80;99.90
18894;DHT22;9579;49.488;8.226;2023-05-07T16:31:58;18.90;99.90
18894;DHT22;9579;49.488;8.226;2023-05-07T16:34:45;18.90;99.90
18894;DHT22;9579;49.488;8.226;2023-05-07T16:37:33;18.90;99.90
18894;DHT22;9579;49.488;8.226;2023-05-07T16:40:20;19.00;99.90
18894;DHT22;9579;49.488;8.226;2023-05-07T16:43:07;19.10;99.90
18894;DHT22;9579;49.488;8.226;2023-05-07T16:45:54;19.10;99.90
18894;DHT22;9579;49.488;8.226;2023-05-07T16:48:42;19.20;99.90
18894;DHT22;9579;49.488;8.226;2023-05-07T16:51:29;19.20;99.90
18894;DHT22;9579;49.488;8.226;2023-05-07T16:54:16;19.10;99.90
18894;DHT22;9579;49.488;8.226;2023-05-07T16:57:03;19.20;99.90
18894;DHT22;9579;49.488;8.226;2023-05-07T16:59:50;19.10;99.90
18894;DHT22;9579;49.488;8.226;2023-05-07T17:02:37;19.00;99.90
18894;DHT22;9579;49.488;8.226;2023-05-07T17:05:26;19.00;99.90
18894;DHT22;9579;49.488;8.226;2023-05-07T17:08:13;19.00;99.90
18894;DHT22;9579;49.488;8.226;2023-05-07T17:11:00;19.00;99.90
18894;DHT22;9579;49.488;8.226;2023-05-07T17:13:47;19.00;99.90
18894;DHT22;9579;49.488;8.226;2023-05-07T17:16:35;19.00;99.90
18894;DHT22;9579;49.488;8.226;2023-05-07T17:19:22;18.90;99.90
18894;DHT22;9579;49.488;8.226;2023-05-07T17:22:10;18.90;99.90
18894;DHT22;9579;49.488;8.226;2023-05-07T17:24:57;18.80;99.90
18894;DHT22;9579;49.488;8.226;2023-05-07T17:27:45;18.80;99.90
18894;DHT22;9579;49.488;8.226;2023-05-07T17:30:32;18.80;99.90
18894;DHT22;9579;49.488;8.226;2023-05-07T17:33:19;18.90;99.90
18894;DHT22;9579;49.488;8.226;2023-05-07T17:36:07;18.90;99.90
18894;DHT22;9579;49.488;8.226;2023-05-07T17:38:55;18.90;99.90
18894;DHT22;9579;49.488;8.226;2023-05-07T17:41:42;18.90;99.90
18894;DHT22;9579;49.488;8.226;2023-05-07T17:44:29;18.90;99.90
18894;DHT22;9579;49.488;8.226;2023-05-07T17:47:16;18.80;99.90
18894;DHT22;9579;49.488;8.226;2023-05-07T17:50:04;18.80;99.90
18894;DHT22;9579;49.488;8.226;2023-05-07T17:52:55;18.80;99.90
18894;DHT22;9579;49.488;8.226;2023-05-07T17:55:44;18.60;99.90
18894;DHT22;9579;49.488;8.226;2023-05-07T17:58:31;18.80;99.90
18894;DHT22;9579;49.488;8.226;2023-05-07T18:01:20;18.70;99.90
18894;DHT22;9579;49.488;8.226;2023-05-07T18:04:07;18.80;99.90
18894;DHT22;9579;49.488;8.226;2023-05-07T18:06:54;18.80;99.90
18894;DHT22;9579;49.488;8.226;2023-05-07T18:09:41;18.90;99.90
18894;DHT22;9579;49.488;8.226;2023-05-07T18:12:30;18.80;99.90
18894;DHT22;9579;49.488;8.226;2023-05-07T18:15:17;18.60;99.90
18894;DHT22;9579;49.488;8.226;2023-05-07T18:18:05;18.60;99.90
18894;DHT22;9579;49.488;8.226;2023-05-07T18:20:52;18.60;99.90
18894;DHT22;9579;49.488;8.226;2023-05-07T18:23:40;18.50;99.90
18894;DHT22;9579;49.488;8.226;2023-05-07T18:26:27;18.50;99.90
18894;DHT22;9579;49.488;8.226;2023-05-07T18:29:15;18.30;99.90
18894;DHT22;9579;49.488;8.226;2023-05-07T18:32:02;18.30;99.90
18894;DHT22;9579;49.488;8.226;2023-05-07T18:34:49;18.20;99.90
18894;DHT22;9579;49.488;8.226;2023-05-07T18:37:36;18.20;99.90
18894;DHT22;9579;49.488;8.226;2023-05-07T18:40:23;18.20;99.90
18894;DHT22;9579;49.488;8.226;2023-05-07T18:43:10;18.10;99.90
18894;DHT22;9579;49.488;8.226;2023-05-07T18:45:58;18.10;99.90
18894;DHT22;9579;49.488;8.226;2023-05-07T18:48:45;18.10;99.90
18894;DHT22;9579;49.488;8.226;2023-05-07T18:51:32;18.20;99.90
18894;DHT22;9579;49.488;8.226;2023-05-07T18:54:19;18.20;99.90
18894;DHT22;9579;49.488;8.226;2023-05-07T18:57:06;18.20;99.90
18894;DHT22;9579;49.488;8.226;2023-05-07T18:59:53;18.10;99.90
18894;DHT22;9579;49.488;8.226;2023-05-07T19:02:42;18.20;99.90
18894;DHT22;9579;49.488;8.226;2023-05-07T19:05:29;18.30;99.90
18894;DHT22;9579;49.488;8.226;2023-05-07T19:08:16;18.10;99.90
18894;DHT22;9579;49.488;8.226;2023-05-07T19:11:03;18.00;99.90
18894;DHT22;9579;49.488;8.226;2023-05-07T19:13:50;18.00;99.90
18894;DHT22;9579;49.488;8.226;2023-05-07T19:16:37;18.10;99.90
18894;DHT22;9579;49.488;8.226;2023-05-07T19:19:26;18.10;99.90
18894;DHT22;9579;49.488;8.226;2023-05-07T19:22:13;18.10;99.90
18894;DHT22;9579;49.488;8.226;2023-05-07T19:25:00;18.00;99.90
18894;DHT22;9579;49.488;8.226;2023-05-07T19:27:47;17.90;99.90
18894;DHT22;9579;49.488;8.226;2023-05-07T19:30:37;17.90;99.90
18894;DHT22;9579;49.488;8.226;2023-05-07T19:33:25;18.00;99.90
18894;DHT22;9579;49.488;8.226;2023-05-07T19:36:15;18.00;99.90
18894;DHT22;9579;49.488;8.226;2023-05-07T19:39:02;18.00;99.90